Time;durP1;ratioP1;P1;durP2;ratioP2;P2;SDS_P1;SDS_P2;PMS_P1;PMS_P2;Temp;Humidity;BMP_temperature;BMP_pressure;BME280_temperature;BME280_humidity;BME280_pressure;Samples;Min_cycle;Max_cycle;Signal;HPM_P1;HPM_P2
2023/08/15 04:01:29;;;;;;;1.30;1.20;;;19.50;97.30;;;;;;5530561;23;20507;-90
2023/08/15 04:04:38;;;;;;;1.93;1.73;;;19.50;97.30;;;;;;4933225;29;20428;-90
2023/08/15 04:07:13;;;;;;;1.20;1.10;;;19.50;97.30;;;;;;4928097;29;20506;-90
2023/08/15 04:09:41;;;;;;;3.00;1.60;;;19.40;97.30;;;;;;4932532;29;20438;-91
2023/08/15 04:12:09;;;;;;;4.20;1.70;;;19.50;97.30;;;;;;4932477;29;20468;-90
2023/08/15 04:14:41;;;;;;;4.63;1.67;;;19.50;97.30;;;;;;4932799;29;20442;-90
2023/08/15 04:17:12;;;;;;;2.40;1.97;;;19.50;97.30;;;;;;4933036;29;20859;-90
2023/08/15 04:19:40;;;;;;;1.73;1.60;;;19.50;97.30;;;;;;4933307;29;20443;-92
2023/08/15 04:22:08;;;;;;;1.23;1.13;;;19.50;97.30;;;;;;4932989;29;20498;-90
2023/08/15 04:24:39;;;;;;;2.53;1.20;;;19.50;97.30;;;;;;4934326;29;20514;-90
2023/08/15 04:27:09;;;;;;;1.30;1.20;;;19.50;97.30;;;;;;4932980;29;20830;-91
2023/08/15 04:29:34;;;;;;;2.10;2.00;;;19.60;97.30;;;;;;4931705;29;20435;-90
2023/08/15 04:32:00;;;;;;;1.57;1.43;;;19.60;97.30;;;;;;4932843;29;20497;-89
2023/08/15 04:34:25;;;;;;;1.97;1.70;;;19.60;97.30;;;;;;4934135;29;20196;-89
2023/08/15 04:36:51;;;;;;;1.80;1.43;;;19.60;97.30;;;;;;4935640;29;20455;-90
2023/08/15 04:39:21;;;;;;;1.50;1.40;;;19.60;97.30;;;;;;4932825;29;20204;-91
2023/08/15 04:41:50;;;;;;;7.47;2.17;;;19.70;97.30;;;;;;4926004;29;20218;-91
2023/08/15 04:44:15;;;;;;;1.60;1.50;;;19.70;97.30;;;;;;4932791;29;20467;-90
2023/08/15 04:46:41;;;;;;;2.90;2.70;;;19.70;97.30;;;;;;4932567;29;20959;-90
2023/08/15 04:49:06;;;;;;;1.83;1.77;;;19.70;97.30;;;;;;4932667;29;20179;-91
2023/08/15 04:51:32;;;;;;;2.30;1.83;;;19.70;97.30;;;;;;4932979;29;20246;-90
2023/08/15 04:54:00;;;;;;;1.70;1.60;;;19.80;97.30;;;;;;4932531;29;20278;-90
2023/08/15 04:56:26;;;;;;;1.87;1.80;;;19.80;97.30;;;;;;4932397;29;20188;-90
2023/08/15 04:58:52;;;;;;;1.30;1.20;;;19.80;97.30;;;;;;4932565;29;20428;-90
2023/08/15 05:04:53;;;;;;;2.10;1.70;;;19.80;97.30;;;;;;4934114;29;20311;-90
2023/08/15 05:07:53;;;;;;;1.70;1.40;;;19.80;97.30;;;;;;4932024;29;20523;-90
2023/08/15 05:14:11;;;;;;;2.50;1.93;;;19.90;97.30;;;;;;4950235;29;20421;-90
2023/08/15 05:20:34;;;;;;;2.03;1.40;;;20.00;97.30;;;;;;4928445;29;20446;-91
2023/08/15 05:23:02;;;;;;;2.90;1.50;;;20.00;97.30;;;;;;4932969;29;20439;-90
2023/08/15 05:25:31;;;;;;;1.90;1.80;;;20.00;97.30;;;;;;4931301;29;21064;-90
2023/08/15 05:28:04;;;;;;;3.00;1.50;;;20.00;97.30;;;;;;4934935;29;20483;-90
2023/08/15 05:30:31;;;;;;;1.60;1.50;;;20.00;97.30;;;;;;4930206;29;20466;-90
2023/08/15 05:33:00;;;;;;;1.70;1.60;;;20.10;97.30;;;;;;4931273;29;20917;-90
2023/08/15 05:35:32;;;;;;;3.70;2.17;;;20.10;97.30;;;;;;4931092;29;20431;-91
2023/08/15 05:38:12;;;;;;;3.80;1.83;;;20.10;97.30;;;;;;4933510;29;20506;-90
2023/08/15 05:40:40;;;;;;;2.20;2.07;;;20.20;97.30;;;;;;4931373;29;20542;-90
2023/08/15 05:43:29;;;;;;;2.37;2.17;;;20.20;97.30;;;;;;4935481;29;20419;-90
2023/08/15 05:46:21;;;;;;;2.97;1.80;;;20.20;97.30;;;;;;4926915;29;20472;-92
2023/08/15 05:48:52;;;;;;;1.53;1.43;;;20.20;97.30;;;;;;4937662;28;20443;-90
2023/08/15 05:51:20;;;;;;;2.40;2.20;;;20.30;97.30;;;;;;4935373;29;20457;-91
2023/08/15 05:53:52;;;;;;;2.27;1.70;;;20.30;97.30;;;;;;4935543;29;20439;-91
2023/08/15 05:56:32;;;;;;;1.00;0.93;;;20.30;97.30;;;;;;4935431;29;20419;-90
2023/08/15 05:59:01;;;;;;;2.07;1.93;;;20.40;97.30;;;;;;4929021;29;20621;-90
2023/08/15 06:01:32;;;;;;;3.80;2.70;;;20.40;97.30;;;;;;4934857;29;20479;-91
2023/08/15 06:04:01;;;;;;;2.97;2.80;;;20.40;97.30;;;;;;4936814;29;20432;-91
2023/08/15 06:06:38;;;;;;;2.77;2.00;;;20.50;97.30;;;;;;4935303;29;20426;-90
2023/08/15 06:09:12;;;;;;;5.53;2.67;;;20.50;97.30;;;;;;4935567;29;20427;-90
2023/08/15 06:11:41;;;;;;;2.43;2.23;;;20.50;97.30;;;;;;4935086;29;20521;-90
2023/08/15 06:14:12;;;;;;;6.00;3.37;;;20.60;97.30;;;;;;4935511;29;20431;-91
2023/08/15 06:16:43;;;;;;;1.23;1.17;;;20.60;97.30;;;;;;4935765;29;20943;-89
2023/08/15 06:19:12;;;;;;;1.60;1.50;;;20.60;97.30;;;;;;4935458;29;20467;-90
2023/08/15 06:22:23;;;;;;;1.47;1.43;;;20.70;97.30;;;;;;4934981;29;20454;-91
2023/08/15 06:24:32;;;;;;;1.70;1.60;;;20.70;97.30;;;;;;4938363;28;20876;-91
2023/08/15 06:27:33;;;;;;;3.93;2.73;;;20.80;97.30;;;;;;4936487;29;20524;-90
2023/08/15 06:30:02;;;;;;;1.37;1.27;;;20.80;97.30;;;;;;4925214;29;20432;-90
2023/08/15 06:32:44;;;;;;;5.23;2.30;;;20.90;97.30;;;;;;4934736;29;20443;-89
2023/08/15 06:35:13;;;;;;;2.57;2.40;;;20.90;97.30;;;;;;4931042;29;20431;-91
2023/08/15 06:38:00;;;;;;;3.60;2.67;;;21.00;97.30;;;;;;4937068;28;20434;-90
2023/08/15 06:40:52;;;;;;;2.50;2.30;;;21.10;97.30;;;;;;4935176;29;20467;-92
2023/08/15 06:43:23;;;;;;;1.60;1.57;;;21.20;97.30;;;;;;4927596;29;20531;-91
2023/08/15 06:50:03;;;;;;;1.87;1.83;;;21.30;97.30;;;;;;4912204;29;20469;-91
2023/08/15 06:52:31;;;;;;;2.50;1.83;;;21.30;97.30;;;;;;4939610;28;20506;-90
2023/08/15 06:55:03;;;;;;;5.27;2.10;;;21.40;97.30;;;;;;4949501;28;20442;-91
2023/08/15 06:57:33;;;;;;;1.90;1.80;;;21.40;97.30;;;;;;4933504;29;20435;-93
2023/08/15 07:00:06;;;;;;;2.10;1.60;;;21.50;97.30;;;;;;4926520;29;20929;-90
2023/08/15 07:02:32;;;;;;;3.97;3.03;;;21.60;97.30;;;;;;4934499;29;20486;-89
2023/08/15 07:05:04;;;;;;;1.97;1.87;;;21.60;97.30;;;;;;4934381;29;20479;-93
2023/08/15 07:07:33;;;;;;;5.30;2.67;;;21.70;97.30;;;;;;4934519;29;20206;-91
2023/08/15 07:10:33;;;;;;;4.93;3.10;;;21.80;97.30;;;;;;4927325;29;20434;-91
2023/08/15 07:13:02;;;;;;;3.93;2.00;;;21.80;97.30;;;;;;4935758;29;20412;-90
2023/08/15 07:15:52;;;;;;;1.80;1.70;;;21.90;97.30;;;;;;4934374;29;20444;-90
2023/08/15 07:18:23;;;;;;;2.90;2.00;;;21.90;97.30;;;;;;4934118;29;20436;-90
2023/08/15 07:21:41;;;;;;;2.60;2.00;;;22.00;97.30;;;;;;4934216;29;20455;-90
2023/08/15 07:24:41;;;;;;;3.20;3.00;;;22.10;97.30;;;;;;4889726;29;20468;-91
2023/08/15 07:27:13;;;;;;;2.70;1.60;;;22.20;97.30;;;;;;4874899;29;20558;-91
2023/08/15 07:32:48;;;;;;;1.60;1.50;;;22.30;97.30;;;;;;4952344;23;20495;-64
2023/08/15 07:35:14;;;;;;;2.03;1.93;;;22.40;97.30;;;;;;4950135;28;21099;-66
2023/08/15 07:37:40;;;;;;;3.60;2.37;;;22.50;97.30;;;;;;4948421;29;20183;-67
2023/08/15 07:40:09;;;;;;;2.60;2.07;;;22.50;97.30;;;;;;4951480;28;20419;-65
2023/08/15 07:42:36;;;;;;;1.97;1.87;;;22.50;97.30;;;;;;4943133;28;20731;-65
2023/08/15 07:45:02;;;;;;;4.70;2.80;;;22.50;97.30;;;;;;4936539;29;20459;-66
2023/08/15 07:47:29;;;;;;;4.33;2.70;;;22.60;97.30;;;;;;4947294;29;20437;-66
2023/08/15 07:50:18;;;;;;;2.73;1.87;;;22.60;97.30;;;;;;4938851;28;21008;-66
2023/08/15 07:52:45;;;;;;;3.80;1.97;;;22.70;97.30;;;;;;4930362;29;20823;-64
2023/08/15 07:55:11;;;;;;;11.73;1.90;;;22.70;97.30;;;;;;4927006;29;20436;-65
2023/08/15 07:57:36;;;;;;;2.53;2.07;;;22.70;97.30;;;;;;4930683;29;20430;-66
2023/08/15 08:00:03;;;;;;;2.37;2.00;;;22.80;97.30;;;;;;4932061;29;20789;-66
2023/08/15 08:02:29;;;;;;;4.77;2.53;;;22.80;97.30;;;;;;4925063;29;20262;-66
2023/08/15 08:04:55;;;;;;;2.27;1.70;;;22.70;97.30;;;;;;4929455;29;20479;-66
2023/08/15 08:07:20;;;;;;;3.97;2.47;;;22.80;97.30;;;;;;4930330;29;20604;-79
2023/08/15 08:09:46;;;;;;;3.23;1.67;;;22.80;97.30;;;;;;4925374;29;20188;-67
2023/08/15 08:12:12;;;;;;;1.37;1.37;;;22.80;97.30;;;;;;4924838;29;20672;-66
2023/08/15 08:14:37;;;;;;;1.73;1.70;;;22.90;97.30;;;;;;4930118;29;20688;-66
2023/08/15 08:17:03;;;;;;;3.90;2.60;;;23.00;97.30;;;;;;4927578;29;20183;-67
2023/08/15 08:19:28;;;;;;;1.90;1.80;;;23.10;97.30;;;;;;4932955;28;20196;-66
2023/08/15 08:21:54;;;;;;;1.97;1.60;;;23.10;97.30;;;;;;4912817;29;20271;-65
2023/08/15 08:24:19;;;;;;;2.60;1.60;;;23.20;97.30;;;;;;4924675;29;20280;-65
2023/08/15 08:26:45;;;;;;;3.33;1.67;;;23.30;97.30;;;;;;4923094;29;20191;-65
2023/08/15 08:29:21;;;;;;;2.70;2.27;;;23.40;97.30;;;;;;4930329;29;20272;-65
2023/08/15 08:31:48;;;;;;;1.67;1.57;;;23.50;97.30;;;;;;4944685;28;20710;-65
2023/08/15 08:34:14;;;;;;;1.57;1.40;;;23.50;97.30;;;;;;4933590;29;20538;-65
2023/08/15 08:36:40;;;;;;;1.57;1.13;;;23.50;97.30;;;;;;4945167;29;20242;-65
2023/08/15 08:39:09;;;;;;;3.07;1.57;;;23.60;97.30;;;;;;4945043;28;20419;-65
2023/08/15 08:41:39;;;;;;;1.70;1.60;;;23.70;97.30;;;;;;4943816;28;20529;-65
2023/08/15 08:44:05;;;;;;;1.43;1.33;;;23.70;97.30;;;;;;4943142;28;20430;-65
2023/08/15 08:46:32;;;;;;;2.60;1.67;;;23.80;97.30;;;;;;4936974;29;20478;-65
2023/08/15 08:48:58;;;;;;;3.53;1.63;;;23.80;97.30;;;;;;4950618;28;20419;-65
2023/08/15 08:51:24;;;;;;;2.80;2.10;;;23.90;97.30;;;;;;4940168;29;20881;-65
2023/08/15 08:53:50;;;;;;;2.30;1.93;;;23.90;97.30;;;;;;4917806;29;20432;-65
2023/08/15 08:56:17;;;;;;;1.87;1.30;;;23.90;97.30;;;;;;4925478;29;20439;-65
2023/08/15 08:58:48;;;;;;;4.30;1.40;;;23.90;97.30;;;;;;4919846;29;20483;-65
2023/08/15 09:01:14;;;;;;;1.27;1.17;;;23.90;97.30;;;;;;4922540;29;20460;-65
2023/08/15 09:03:40;;;;;;;1.93;1.73;;;23.90;97.30;;;;;;4928836;29;20470;-65
2023/08/15 09:06:06;;;;;;;1.67;1.50;;;23.90;97.30;;;;;;4931736;29;20467;-65
2023/08/15 09:08:32;;;;;;;1.53;1.43;;;24.00;97.30;;;;;;4929067;29;20289;-65
2023/08/15 09:10:58;;;;;;;2.93;2.43;;;24.00;97.30;;;;;;4927167;29;20515;-66
2023/08/15 09:13:23;;;;;;;1.60;1.23;;;24.00;97.30;;;;;;4924614;29;20436;-65
2023/08/15 09:15:51;;;;;;;1.77;1.47;;;24.00;97.30;;;;;;4940063;29;20188;-65
2023/08/15 09:18:22;;;;;;;2.07;1.93;;;24.10;97.30;;;;;;4931375;29;20184;-65
2023/08/15 09:20:48;;;;;;;2.03;1.80;;;24.10;97.30;;;;;;4933440;29;20444;-65
2023/08/15 09:23:14;;;;;;;1.63;1.53;;;24.00;97.30;;;;;;4931121;28;20613;-65
2023/08/15 09:25:40;;;;;;;4.67;1.60;;;24.10;97.30;;;;;;4937546;29;20261;-64
2023/08/15 09:28:06;;;;;;;1.67;1.67;;;24.10;97.30;;;;;;4930274;28;20455;-66
2023/08/15 09:30:32;;;;;;;1.83;1.40;;;24.10;97.30;;;;;;4923856;29;20739;-65
2023/08/15 09:33:00;;;;;;;2.33;1.90;;;24.10;97.30;;;;;;4926839;29;20531;-65
2023/08/15 09:35:25;;;;;;;1.73;1.60;;;24.10;97.30;;;;;;4927874;29;20179;-66
2023/08/15 09:37:52;;;;;;;1.10;1.07;;;24.20;97.30;;;;;;4929051;29;20994;-65
2023/08/15 09:40:25;;;;;;;1.87;1.77;;;24.20;97.30;;;;;;4918521;29;20207;-66
2023/08/15 09:42:52;;;;;;;2.30;1.90;;;24.30;97.30;;;;;;4920706;29;20436;-65
2023/08/15 09:45:18;;;;;;;1.30;1.30;;;24.40;97.30;;;;;;4916578;29;20521;-67
2023/08/15 09:47:45;;;;;;;1.87;1.67;;;24.50;97.30;;;;;;4920479;29;20433;-65
2023/08/15 09:50:12;;;;;;;4.27;3.30;;;24.50;97.30;;;;;;4920927;29;20489;-65
2023/08/15 09:52:40;;;;;;;2.13;1.97;;;24.50;97.30;;;;;;4921429;29;20432;-65
2023/08/15 09:55:11;;;;;;;3.37;3.17;;;24.60;97.30;;;;;;4924417;29;20835;-65
2023/08/15 09:57:39;;;;;;;2.07;1.50;;;24.60;97.30;;;;;;4930011;29;20439;-66
2023/08/15 10:00:08;;;;;;;2.07;1.70;;;24.60;97.30;;;;;;4929324;29;20436;-65
2023/08/15 10:02:42;;;;;;;2.00;1.90;;;24.60;97.30;;;;;;4929353;29;20440;-65
2023/08/15 10:05:11;;;;;;;1.93;1.83;;;24.60;97.30;;;;;;4930009;29;20690;-65
2023/08/15 10:07:38;;;;;;;3.90;2.00;;;24.60;97.30;;;;;;4927113;29;20443;-65
2023/08/15 10:10:05;;;;;;;2.00;1.87;;;24.70;97.30;;;;;;4930153;29;20420;-65
2023/08/15 10:12:33;;;;;;;1.93;1.83;;;24.70;97.30;;;;;;4926980;29;21007;-65
2023/08/15 10:15:00;;;;;;;2.10;1.70;;;24.70;97.30;;;;;;4947224;23;20495;-71
2023/08/15 10:17:28;;;;;;;2.30;2.10;;;24.80;97.30;;;;;;4921722;29;20963;-72
2023/08/15 10:19:54;;;;;;;1.60;1.53;;;24.80;97.30;;;;;;4924207;29;20450;-72
2023/08/15 10:22:22;;;;;;;1.23;1.13;;;24.80;97.30;;;;;;4919751;29;20882;-72
2023/08/15 10:24:48;;;;;;;1.27;1.17;;;24.80;97.30;;;;;;4914496;29;20510;-73
2023/08/15 10:27:14;;;;;;;2.53;2.33;;;24.80;97.30;;;;;;4913344;29;20447;-73
2023/08/15 10:29:57;;;;;;;2.70;1.67;;;24.80;97.30;;;;;;4918581;29;20436;-73
2023/08/15 10:32:25;;;;;;;3.50;1.73;;;25.00;97.30;;;;;;4923834;29;20204;-72
2023/08/15 10:35:11;;;;;;;3.60;3.00;;;25.20;97.30;;;;;;4928807;29;20971;-73
2023/08/15 10:37:38;;;;;;;2.87;1.77;;;25.40;97.30;;;;;;4930309;29;20943;-73
2023/08/15 10:40:12;;;;;;;2.47;2.13;;;25.50;97.30;;;;;;4930331;29;20450;-72
2023/08/15 10:43:07;;;;;;;2.23;2.03;;;25.60;97.30;;;;;;4914831;29;20440;-72
2023/08/15 10:45:55;;;;;;;1.83;1.40;;;25.80;97.30;;;;;;4914074;29;20472;-73
2023/08/15 10:48:50;;;;;;;1.33;1.23;;;26.00;97.30;;;;;;4915080;29;20442;-72
2023/08/15 10:51:24;;;;;;;2.13;1.97;;;26.10;97.30;;;;;;4922188;29;20503;-73
2023/08/15 10:53:56;;;;;;;1.83;1.60;;;26.30;97.30;;;;;;4912544;29;20880;-73
2023/08/15 10:56:29;;;;;;;1.43;1.40;;;26.40;97.30;;;;;;4918835;29;20460;-73
2023/08/15 10:58:56;;;;;;;6.10;2.53;;;26.50;97.30;;;;;;4916965;29;20452;-73
2023/08/15 11:01:27;;;;;;;1.67;1.57;;;26.70;97.30;;;;;;4922809;29;20455;-73
2023/08/15 11:03:57;;;;;;;3.30;1.50;;;26.80;97.30;;;;;;4924393;29;20436;-73
2023/08/15 11:06:24;;;;;;;3.00;1.87;;;26.90;97.30;;;;;;4912588;29;20991;-72
2023/08/15 11:08:55;;;;;;;1.43;1.33;;;27.00;97.30;;;;;;4927566;29;20522;-72
2023/08/15 11:11:21;;;;;;;1.93;1.53;;;27.10;97.30;;;;;;4933392;29;20448;-73
2023/08/15 11:13:49;;;;;;;3.13;2.53;;;27.10;97.30;;;;;;4920898;29;20582;-74
2023/08/15 11:16:17;;;;;;;1.30;1.10;;;27.20;97.30;;;;;;4939443;28;20330;-73
2023/08/15 11:18:43;;;;;;;2.33;2.13;;;27.30;97.30;;;;;;4957585;28;20500;-73
2023/08/15 11:21:11;;;;;;;1.30;1.20;;;27.40;97.30;;;;;;4944769;28;20472;-73
2023/08/15 11:23:37;;;;;;;1.73;1.40;;;27.50;97.30;;;;;;4944945;28;20500;-74
2023/08/15 11:26:08;;;;;;;1.70;1.50;;;27.60;97.30;;;;;;4957625;28;20473;-74
2023/08/15 11:28:35;;;;;;;3.97;2.57;;;27.60;97.30;;;;;;4956015;28;20414;-74
2023/08/15 11:31:11;;;;;;;2.57;1.17;;;27.80;97.30;;;;;;4959864;28;20488;-77
2023/08/15 11:33:37;;;;;;;1.83;1.77;;;27.90;97.30;;;;;;4951904;28;20434;-72
2023/08/15 11:36:09;;;;;;;1.60;1.40;;;27.90;97.30;;;;;;4962908;28;20418;-73
2023/08/15 11:38:36;;;;;;;1.63;1.57;;;28.00;97.30;;;;;;4955006;28;20414;-74
2023/08/15 11:41:02;;;;;;;2.40;1.73;;;28.00;97.30;;;;;;4951277;28;20435;-73
2023/08/15 11:43:32;;;;;;;1.57;1.50;;;28.10;97.30;;;;;;4952050;28;20451;-72
2023/08/15 11:46:02;;;;;;;2.27;1.20;;;28.20;97.30;;;;;;4957400;28;20833;-73
2023/08/15 11:48:31;;;;;;;1.63;1.57;;;28.30;97.30;;;;;;4951931;28;20457;-72
2023/08/15 11:50:57;;;;;;;2.50;1.63;;;28.40;97.30;;;;;;4939181;28;20548;-73
2023/08/15 11:53:23;;;;;;;7.93;3.40;;;28.40;97.30;;;;;;4957746;28;20860;-71
2023/08/15 11:55:48;;;;;;;1.93;1.87;;;28.50;97.30;;;;;;4961938;28;20520;-73
2023/08/15 11:58:44;;;;;;;1.43;1.40;;;28.60;96.50;;;;;;4950073;28;20191;-73
2023/08/15 12:01:11;;;;;;;1.77;1.50;;;28.70;96.60;;;;;;4939069;28;20653;-73
2023/08/15 12:03:37;;;;;;;4.30;1.40;;;28.80;95.80;;;;;;4972075;28;20517;-73
2023/08/15 12:06:11;;;;;;;1.00;0.90;;;28.90;94.90;;;;;;4935635;28;20469;-74
2023/08/15 12:08:38;;;;;;;1.63;1.20;;;29.00;94.40;;;;;;4952312;28;20423;-72
2023/08/15 12:11:05;;;;;;;9.73;2.27;;;29.10;94.30;;;;;;4954566;28;20479;-72
2023/08/15 12:13:32;;;;;;;1.33;1.23;;;29.10;93.20;;;;;;4951001;28;20446;-73
2023/08/15 12:15:59;;;;;;;4.87;2.53;;;29.20;94.90;;;;;;4936619;28;20826;-73
2023/08/15 12:18:25;;;;;;;1.97;1.37;;;29.30;95.90;;;;;;4965220;28;21056;-74
2023/08/15 12:20:51;;;;;;;2.00;1.53;;;29.50;94.90;;;;;;4942323;28;20454;-73
2023/08/15 12:23:17;;;;;;;1.40;1.30;;;29.60;95.10;;;;;;4953207;28;20591;-73
2023/08/15 12:25:42;;;;;;;3.50;1.73;;;29.70;94.60;;;;;;4960740;28;20215;-73
2023/08/15 12:28:08;;;;;;;2.13;1.70;;;29.80;94.30;;;;;;4950745;28;20419;-73
2023/08/15 12:30:34;;;;;;;1.43;1.33;;;29.90;93.10;;;;;;4933011;29;20200;-73
2023/08/15 12:33:00;;;;;;;1.93;1.50;;;29.90;92.10;;;;;;4932865;28;20227;-73
2023/08/15 12:35:26;;;;;;;1.20;1.10;;;30.00;92.30;;;;;;4955329;28;20291;-73
2023/08/15 12:37:52;;;;;;;2.50;1.57;;;30.00;93.50;;;;;;4943511;28;20426;-71
2023/08/15 12:40:18;;;;;;;2.47;2.20;;;30.10;92.80;;;;;;4950472;28;20426;-72
2023/08/15 12:42:43;;;;;;;1.70;1.13;;;30.10;92.40;;;;;;4939914;28;20183;-73
2023/08/15 12:45:09;;;;;;;1.50;1.40;;;30.10;92.20;;;;;;4951575;28;20207;-72
2023/08/15 12:47:35;;;;;;;1.50;1.30;;;30.10;92.00;;;;;;4951806;28;20238;-73
2023/08/15 12:50:00;;;;;;;1.93;1.40;;;30.10;91.80;;;;;;4933395;28;20262;-74
2023/08/15 12:52:26;;;;;;;1.73;1.60;;;30.20;92.60;;;;;;4939758;29;20195;-73
2023/08/15 12:54:52;;;;;;;1.73;1.30;;;30.30;93.00;;;;;;4957960;28;20258;-73
2023/08/15 12:57:18;;;;;;;1.53;1.50;;;30.40;92.70;;;;;;4941062;28;20293;-74
2023/08/15 12:59:44;;;;;;;2.03;1.57;;;30.50;93.00;;;;;;4957282;28;21230;-72
2023/08/15 13:02:10;;;;;;;1.50;1.40;;;30.70;93.20;;;;;;4957305;28;20244;-72
2023/08/15 13:04:36;;;;;;;1.10;1.10;;;30.80;91.70;;;;;;4957846;28;20474;-73
2023/08/15 13:07:03;;;;;;;1.30;1.20;;;30.80;90.30;;;;;;4940191;28;20503;-73
2023/08/15 13:09:29;;;;;;;7.83;1.43;;;30.90;91.00;;;;;;4939777;28;20189;-73
2023/08/15 13:11:54;;;;;;;1.20;1.10;;;30.90;90.20;;;;;;4946859;28;20449;-70
2023/08/15 13:14:20;;;;;;;1.50;1.40;;;31.00;89.90;;;;;;4960258;28;20606;-74
2023/08/15 13:16:46;;;;;;;2.60;1.70;;;31.10;89.00;;;;;;4958005;28;20498;-73
2023/08/15 13:19:11;;;;;;;2.13;1.60;;;31.20;89.30;;;;;;4961382;28;20525;-73
2023/08/15 13:21:37;;;;;;;3.23;1.63;;;31.20;89.20;;;;;;4958334;28;20450;-73
2023/08/15 13:24:02;;;;;;;1.47;1.10;;;31.20;88.80;;;;;;4957116;28;20183;-74
2023/08/15 13:26:28;;;;;;;1.90;1.27;;;31.10;88.80;;;;;;4951885;28;20570;-73
2023/08/15 13:28:54;;;;;;;12.67;2.00;;;31.00;89.00;;;;;;4960117;28;20668;-72
2023/08/15 13:31:19;;;;;;;1.53;1.43;;;31.10;90.10;;;;;;4966113;28;20221;-73
2023/08/15 13:33:45;;;;;;;1.87;1.50;;;31.10;89.70;;;;;;4950477;28;20388;-72
2023/08/15 13:36:11;;;;;;;1.23;1.13;;;31.00;89.00;;;;;;4958613;28;20206;-72
2023/08/15 13:38:37;;;;;;;5.80;2.67;;;30.90;89.40;;;;;;4963774;28;20668;-73
2023/08/15 13:41:03;;;;;;;5.83;2.97;;;30.90;89.60;;;;;;4964263;28;20692;-72
2023/08/15 13:43:29;;;;;;;1.00;0.90;;;30.80;89.70;;;;;;4964622;28;20218;-72
2023/08/15 13:46:01;;;;;;;1.10;1.00;;;30.80;89.60;;;;;;4959626;28;20967;-71
2023/08/15 13:48:27;;;;;;;0.93;0.90;;;30.70;89.40;;;;;;4947077;28;20179;-71
2023/08/15 13:50:53;;;;;;;1.63;1.27;;;30.60;89.00;;;;;;4955859;28;20516;-71
2023/08/15 13:53:20;;;;;;;1.30;1.17;;;30.50;89.00;;;;;;4955485;28;20470;-71
2023/08/15 13:55:46;;;;;;;2.40;2.20;;;30.50;89.10;;;;;;4946840;28;20931;-69
2023/08/15 13:58:12;;;;;;;1.47;1.37;;;30.50;89.20;;;;;;4963093;28;21181;-69
2023/08/15 14:00:38;;;;;;;2.53;1.40;;;30.40;89.20;;;;;;4966853;28;20457;-70
2023/08/15 14:03:04;;;;;;;7.67;1.83;;;30.40;89.10;;;;;;4979692;28;20264;-69
2023/08/15 14:05:30;;;;;;;1.80;1.27;;;30.30;89.10;;;;;;4974325;28;20592;-69
2023/08/15 14:07:55;;;;;;;1.43;1.30;;;30.30;89.30;;;;;;4973830;28;20786;-69
2023/08/15 14:10:22;;;;;;;4.20;1.47;;;30.20;89.30;;;;;;4964805;28;20248;-69
2023/08/15 14:12:48;;;;;;;1.67;1.60;;;30.20;89.80;;;;;;4964596;28;20174;-69
2023/08/15 14:15:14;;;;;;;1.37;1.07;;;30.10;90.00;;;;;;4972880;28;20874;-69
2023/08/15 14:17:40;;;;;;;2.30;1.50;;;30.10;90.00;;;;;;4972594;28;20213;-69
2023/08/15 14:20:06;;;;;;;1.00;1.00;;;30.00;90.20;;;;;;4971840;28;20183;-69
2023/08/15 14:22:32;;;;;;;1.83;1.43;;;30.00;90.20;;;;;;4973158;28;20174;-69
2023/08/15 14:24:58;;;;;;;1.30;1.30;;;29.90;89.90;;;;;;4955400;28;21044;-69
2023/08/15 14:27:23;;;;;;;1.60;1.50;;;29.80;90.30;;;;;;4955218;28;20206;-69
2023/08/15 14:29:50;;;;;;;1.70;1.63;;;29.80;90.50;;;;;;4978709;28;20650;-69
2023/08/15 14:32:16;;;;;;;2.23;1.80;;;29.70;90.50;;;;;;4974635;28;20194;-69
2023/08/15 14:34:42;;;;;;;1.50;1.23;;;29.60;90.60;;;;;;4955415;28;20429;-69
2023/08/15 14:37:09;;;;;;;2.17;1.47;;;29.60;91.20;;;;;;4955100;28;20440;-69
2023/08/15 14:39:35;;;;;;;2.10;1.37;;;29.50;94.40;;;;;;4972417;28;20221;-69
2023/08/15 14:42:01;;;;;;;2.10;1.63;;;29.40;94.60;;;;;;4954265;28;20978;-69
2023/08/15 14:44:28;;;;;;;1.53;1.43;;;29.30;94.90;;;;;;4971094;28;20643;-69
2023/08/15 14:46:53;;;;;;;1.13;1.07;;;29.20;96.00;;;;;;4954378;28;20233;-69
2023/08/15 14:49:19;;;;;;;1.63;1.43;;;29.10;95.70;;;;;;4971076;28;20429;-69
2023/08/15 14:51:44;;;;;;;3.73;2.07;;;29.00;95.90;;;;;;4971379;28;20194;-69
2023/08/15 14:54:11;;;;;;;1.80;1.53;;;29.00;96.50;;;;;;4983440;28;20189;-69
2023/08/15 14:56:36;;;;;;;3.33;1.40;;;28.90;97.10;;;;;;4968120;28;20228;-69
2023/08/15 14:59:02;;;;;;;1.60;1.50;;;28.80;97.10;;;;;;4991753;28;20419;-69
2023/08/15 15:01:27;;;;;;;1.53;1.20;;;28.70;97.30;;;;;;4988075;28;20384;-69
2023/08/15 15:03:53;;;;;;;1.47;1.37;;;28.60;97.30;;;;;;4944908;28;20772;-69
2023/08/15 15:06:18;;;;;;;2.97;2.60;;;28.60;97.30;;;;;;4971169;28;20206;-69
2023/08/15 15:08:44;;;;;;;1.40;1.30;;;28.50;97.30;;;;;;4969028;28;20630;-69
2023/08/15 15:11:09;;;;;;;1.63;1.53;;;28.40;97.30;;;;;;4952672;28;20190;-69
2023/08/15 15:13:36;;;;;;;1.50;1.20;;;28.20;97.30;;;;;;4970183;28;20426;-69
2023/08/15 15:16:01;;;;;;;1.47;1.37;;;28.20;97.30;;;;;;4954346;28;20226;-69
2023/08/15 15:18:28;;;;;;;1.87;1.53;;;28.10;97.30;;;;;;4973188;28;20820;-69
2023/08/15 15:20:55;;;;;;;3.27;2.63;;;28.00;97.30;;;;;;4985365;28;20203;-69
2023/08/15 15:23:20;;;;;;;1.30;1.20;;;28.00;97.30;;;;;;4981058;28;20937;-70
2023/08/15 15:25:47;;;;;;;1.83;1.73;;;27.90;97.30;;;;;;4977582;28;20472;-69
2023/08/15 15:28:13;;;;;;;2.43;1.70;;;27.80;97.30;;;;;;4959985;28;20178;-69
2023/08/15 15:30:38;;;;;;;1.93;1.40;;;27.60;97.30;;;;;;4983250;28;20802;-70
2023/08/15 15:33:04;;;;;;;1.93;1.60;;;27.50;97.30;;;;;;4957678;28;20221;-69
2023/08/15 15:35:30;;;;;;;2.07;1.43;;;27.40;97.30;;;;;;4979513;28;20209;-69
2023/08/15 15:37:55;;;;;;;5.80;1.67;;;27.20;97.30;;;;;;4971199;28;20197;-69
2023/08/15 15:40:21;;;;;;;1.37;1.27;;;27.10;97.30;;;;;;4955394;28;20189;-70
2023/08/15 15:42:46;;;;;;;3.17;2.13;;;26.90;97.30;;;;;;4990555;28;20174;-70
2023/08/15 15:45:12;;;;;;;2.20;1.40;;;26.80;97.30;;;;;;4956820;28;20218;-71
2023/08/15 15:47:38;;;;;;;1.40;1.30;;;26.60;97.30;;;;;;4953901;28;20179;-71
2023/08/15 15:50:04;;;;;;;4.70;2.37;;;26.50;97.30;;;;;;4971081;28;20171;-71
2023/08/15 15:52:30;;;;;;;1.37;1.20;;;26.40;97.30;;;;;;4989999;28;20428;-72
2023/08/15 15:54:56;;;;;;;2.33;2.17;;;26.30;97.30;;;;;;4958752;28;20933;-72
2023/08/15 15:57:22;;;;;;;2.30;1.93;;;26.20;97.30;;;;;;4953757;28;20602;-72
2023/08/15 15:59:47;;;;;;;1.93;1.37;;;26.10;97.30;;;;;;4984231;28;20240;-72
2023/08/15 16:02:13;;;;;;;3.03;1.77;;;26.00;97.30;;;;;;4956161;28;20520;-72
2023/08/15 16:04:39;;;;;;;2.47;1.87;;;26.00;97.30;;;;;;4961317;28;20225;-72
2023/08/15 16:07:04;;;;;;;3.90;1.97;;;25.90;97.30;;;;;;4979271;28;20210;-72
2023/08/15 16:09:30;;;;;;;3.10;1.80;;;25.80;97.30;;;;;;4978791;28;20178;-72
2023/08/15 16:11:55;;;;;;;4.70;3.00;;;25.80;97.30;;;;;;4976566;28;20575;-72
2023/08/15 16:16:56;;;;;;;2.07;1.97;;;25.70;97.30;;;;;;1273712;26;20303;-68
2023/08/15 16:19:22;;;;;;;3.00;2.20;;;25.70;97.30;;;;;;4991733;28;20523;-68
2023/08/15 16:21:47;;;;;;;2.90;2.70;;;25.70;97.30;;;;;;4979153;28;20208;-68
2023/08/15 16:24:13;;;;;;;2.50;2.20;;;25.70;97.30;;;;;;5006525;28;20189;-68
2023/08/15 16:26:39;;;;;;;2.40;2.00;;;25.70;97.30;;;;;;5001609;28;20217;-67
2023/08/15 16:29:04;;;;;;;4.00;2.10;;;25.70;97.30;;;;;;5009534;28;20704;-68
2023/08/15 16:31:30;;;;;;;3.47;2.93;;;25.70;97.30;;;;;;5007182;28;20212;-68
2023/08/15 16:33:56;;;;;;;3.20;3.00;;;25.70;97.30;;;;;;5004101;28;20196;-68
2023/08/15 16:36:21;;;;;;;3.60;2.87;;;25.70;97.30;;;;;;5006385;28;20189;-68
2023/08/15 16:38:47;;;;;;;1.67;1.50;;;25.70;97.30;;;;;;4984635;28;20267;-68
2023/08/15 16:41:12;;;;;;;1.63;1.47;;;25.70;97.30;;;;;;5009104;28;20216;-68
2023/08/15 16:43:38;;;;;;;2.33;1.90;;;25.70;97.30;;;;;;4991925;28;20686;-69
2023/08/15 16:46:03;;;;;;;7.53;2.83;;;25.70;97.30;;;;;;4984085;28;20693;-69
2023/08/15 16:48:29;;;;;;;4.10;2.53;;;25.70;97.30;;;;;;5001360;28;20181;-69
2023/08/15 16:50:54;;;;;;;6.47;2.47;;;25.70;97.30;;;;;;5003383;28;20325;-69
2023/08/15 16:53:20;;;;;;;4.77;2.63;;;25.70;97.30;;;;;;5006709;28;20187;-69
2023/08/15 16:55:45;;;;;;;3.13;1.80;;;25.60;97.30;;;;;;5009613;28;20618;-70
2023/08/15 16:58:11;;;;;;;6.33;2.80;;;25.60;97.30;;;;;;4991420;28;20556;-69
2023/08/15 17:00:37;;;;;;;3.60;1.70;;;25.60;97.30;;;;;;4975006;28;20197;-70
2023/08/15 17:03:03;;;;;;;1.43;1.33;;;25.50;97.30;;;;;;5002472;28;20428;-70
2023/08/15 17:05:29;;;;;;;6.13;2.40;;;25.50;97.30;;;;;;4981371;28;20623;-70
2023/08/15 17:07:54;;;;;;;5.60;4.17;;;25.40;97.30;;;;;;4995626;28;20748;-70
2023/08/15 17:10:20;;;;;;;1.80;1.73;;;25.40;97.30;;;;;;5005101;28;20185;-71
2023/08/15 17:12:46;;;;;;;3.13;2.10;;;25.30;97.30;;;;;;4990812;28;20184;-71
2023/08/15 17:15:13;;;;;;;3.27;1.67;;;25.30;97.30;;;;;;5009030;28;20232;-71
2023/08/15 17:17:38;;;;;;;3.03;2.03;;;25.30;97.30;;;;;;5001101;28;20474;-70